Aeroporto :
LOGIN :

Iscrizione | Disclaimer

   EN    FR    IT 

 










Sommario :    VFR   VFR Marginale   IFR   IFR Intensivo   IFR Molto Intensivo
Visibilità : 
Base nubi : 
>= 8 km
>= 3000ft
5 / 8 km
1000 / 3000 ft
1500m / 5 km
500 / 1000 ft
800 / 1500m
200 / 500 ft
< 800m
< 200 ft
Simboli :   Temporali  Nebbia  Neve Forte  Precipitazioni Forti  Vento > 20 kt
SIGMETs :   Varie  Temporali  Ghiacco  Turbolenza  Onda orograficha  Ceneri Vulcaniche






- Altitudine del aeroporto : 187 ft


LPMR - Monte Real Air Base

ULTIMO METAR :
  • 220800Z 22016G26KT 5000 -RADZ BKN007 BKN012 15/15 Q0994

METARs OBSOLETI :
  • 220700Z 20010KT 6000 -RADZ BKN008 BKN016 14/14 Q0995
  • 220625Z METAR 20008KT 4000 RADZ BKN008 BKN015 14/14 Q0996
  • 220600Z 19004KT 160V220 9000 -DZRA BKN010 BKN018 BKN030 14/13 Q0996

TAF TAF LPMR
Valido dal 22 a 06 ore il 23 a 06 ore UTC


220517Z 2206/2306 21012KT 9999 SCT010 BKN014
TEMPO 2206/2208 22015G28KT 4000 -RADZ SCT006 BKN009
PROB40
TEMPO 2206/2208 23025G32KT 2500 TSRA SCT006 BKN008 FEW018CB
BECMG 2208/2210 28015KT SCT012 SCT016
TEMPO 2208/2306 28018G28KT 7000 -SHRA SCT008 BKN014 FEW020TCU
PROB40
TEMPO 2218/2306 28022G38KT 4000 SHRA SCT007 BKN012 FEW018CB



MetMap, La meteo Aeronautica in un colpo d'occhio ! - Copyright ORBIFLY Dicembre 2007 - Disclaimer

ORBIFLY MET'MAP TEAM :

Programmazione e sviluppo : Alexandra Zaïnal
Concezione e sviluppo : Baudouin d'Aumeries
Co-Programmazione e sviluppo : Marc-Olivier Méhu
Supporto tecnico e logistico : Manuel Goepfert
Aiuto per la traduzione : Arnaldo La Scala

Contatto : metmap@orbifly.com




FONTI E CREDITI :

   NOAA